Time;durP1;ratioP1;P1;durP2;ratioP2;P2;SDS_P1;SDS_P2;PMS_P1;PMS_P2;Temp;Humidity;BMP_temperature;BMP_pressure;BME280_temperature;BME280_humidity;BME280_pressure;Samples;Min_cycle;Max_cycle;Signal;HPM_P1;HPM_P2
2022/03/18 19:06:53;;;;;;;5.38;1.70;;;16.40;70.50;;;;;;2297619;62;30146;-75
2022/03/18 19:09:21;;;;;;;23.95;3.42;;;16.40;70.50;;;;;;2282953;62;30286;-71
2022/03/18 19:11:47;;;;;;;5.65;2.20;;;16.40;71.80;;;;;;2282756;62;29993;-69
2022/03/18 19:14:13;;;;;;;5.60;2.30;;;16.60;73.40;;;;;;2281969;62;30170;-70
2022/03/18 19:16:39;;;;;;;4.90;2.00;;;16.70;74.70;;;;;;2282664;62;30655;-73
2022/03/18 19:19:14;;;;;;;6.05;2.42;;;16.80;75.60;;;;;;2282329;62;30425;-73
2022/03/18 19:21:43;;;;;;;6.72;2.20;;;16.80;75.70;;;;;;2282223;62;30422;-71
2022/03/18 19:24:09;;;;;;;6.07;1.90;;;16.90;75.30;;;;;;2282723;62;30138;-71
2022/03/18 19:26:35;;;;;;;6.40;2.05;;;17.00;75.70;;;;;;2282750;62;30355;-70
2022/03/18 19:29:01;;;;;;;5.43;2.22;;;17.00;75.50;;;;;;2275240;62;30649;-71
2022/03/18 19:34:12;;;;;;;5.70;2.20;;;17.00;75.20;;;;;;2288867;62;30065;-71
2022/03/18 19:36:38;;;;;;;4.45;2.05;;;17.10;75.00;;;;;;2290927;62;30522;-71
2022/03/18 19:39:04;;;;;;;5.45;2.00;;;17.10;74.70;;;;;;2290801;62;30205;-71
2022/03/18 19:41:30;;;;;;;4.80;1.95;;;17.10;74.50;;;;;;2290790;62;30570;-71
2022/03/18 19:43:56;;;;;;;4.88;1.83;;;17.10;74.20;;;;;;2288658;62;30194;-70
2022/03/18 19:46:22;;;;;;;5.47;2.50;;;17.10;74.00;;;;;;2281566;62;30486;-71
2022/03/18 19:48:48;;;;;;;4.03;1.85;;;17.20;74.50;;;;;;2282669;62;30288;-71
2022/03/18 19:51:14;;;;;;;5.03;1.92;;;17.20;73.50;;;;;;2282693;62;30423;-72
2022/03/18 19:53:40;;;;;;;4.95;1.80;;;17.20;74.10;;;;;;2281907;62;30116;-71
2022/03/18 20:01:35;;;;;;;3.78;1.83;;;17.30;73.10;;;;;;2282771;62;30205;-69
2022/03/18 20:04:00;;;;;;;3.05;1.77;;;17.40;73.30;;;;;;2282864;62;31858;-69
2022/03/18 20:06:29;;;;;;;5.10;2.03;;;17.40;73.50;;;;;;2281302;62;30564;-74
2022/03/18 20:08:58;;;;;;;4.53;1.80;;;17.40;73.50;;;;;;2282774;62;30179;-78
2022/03/18 20:11:26;;;;;;;4.68;2.00;;;17.50;73.10;;;;;;2275793;62;30389;-80
2022/03/18 20:13:52;;;;;;;3.90;2.13;;;17.40;73.00;;;;;;2283036;62;31014;-76
2022/03/18 20:16:20;;;;;;;4.68;1.90;;;17.40;73.00;;;;;;2281824;62;30200;-79
2022/03/18 20:18:46;;;;;;;5.75;2.22;;;17.40;72.70;;;;;;2277097;62;30948;-78
2022/03/18 20:21:12;;;;;;;4.50;1.92;;;17.40;72.70;;;;;;2276951;62;30496;-77
2022/03/18 20:23:38;;;;;;;3.88;1.80;;;17.40;72.50;;;;;;2277042;62;30070;-78
2022/03/18 20:26:04;;;;;;;3.58;1.80;;;17.40;72.20;;;;;;2277048;62;30409;-77
2022/03/18 20:28:30;;;;;;;4.50;1.98;;;17.40;71.70;;;;;;2276893;62;30171;-76
2022/03/18 20:30:56;;;;;;;4.65;1.90;;;17.40;71.60;;;;;;2277171;62;30360;-76
2022/03/18 20:33:21;;;;;;;3.60;2.00;;;17.40;71.40;;;;;;2276754;62;30821;-75
2022/03/18 20:35:47;;;;;;;3.97;2.05;;;17.40;71.30;;;;;;2276669;62;30579;-77
2022/03/18 20:38:16;;;;;;;5.22;2.00;;;17.40;71.10;;;;;;2276755;62;30308;-75
2022/03/18 20:40:44;;;;;;;4.18;1.70;;;17.40;70.90;;;;;;2277067;62;29942;-77
2022/03/18 20:43:11;;;;;;;3.63;1.77;;;17.40;70.90;;;;;;2276685;62;30187;-77
2022/03/18 20:45:38;;;;;;;3.58;2.03;;;17.40;70.80;;;;;;2269608;62;30414;-76
2022/03/18 20:48:04;;;;;;;3.83;1.90;;;17.40;70.50;;;;;;2277044;62;30396;-76
2022/03/18 20:50:30;;;;;;;4.32;2.17;;;17.40;70.40;;;;;;2269357;62;30320;-77
2022/03/18 20:53:03;;;;;;;3.60;1.92;;;17.40;70.50;;;;;;2276773;62;30126;-76
2022/03/18 20:55:29;;;;;;;3.58;2.03;;;17.40;70.40;;;;;;2276875;62;30365;-76
2022/03/18 20:57:55;;;;;;;3.03;1.75;;;17.40;70.40;;;;;;2278125;62;30180;-76
2022/03/18 21:00:24;;;;;;;3.47;1.70;;;17.40;70.50;;;;;;2285192;62;30668;-79
2022/03/18 21:02:51;;;;;;;4.40;1.73;;;17.50;70.40;;;;;;2284935;62;30871;-80
2022/03/18 21:05:18;;;;;;;3.67;1.80;;;17.50;70.10;;;;;;2284824;62;30739;-77
2022/03/18 21:07:44;;;;;;;4.82;2.17;;;17.40;70.00;;;;;;2272240;62;31516;-82
2022/03/18 21:10:10;;;;;;;3.85;2.00;;;17.40;70.70;;;;;;2274776;62;30090;-80
2022/03/18 21:12:44;;;;;;;3.10;1.77;;;17.40;70.10;;;;;;2272840;62;30626;-84
2022/03/18 21:15:13;;;;;;;3.03;1.70;;;17.40;70.10;;;;;;2275904;62;30879;-86
2022/03/18 21:17:42;;;;;;;3.72;1.60;;;17.40;70.10;;;;;;2269912;62;30299;-85
2022/03/18 21:20:14;;;;;;;2.47;1.77;;;17.30;70.10;;;;;;2274731;62;30213;-83
2022/03/18 21:22:47;;;;;;;3.45;2.28;;;17.30;70.00;;;;;;2261434;62;30321;-85
2022/03/18 21:25:17;;;;;;;3.97;2.00;;;17.30;70.00;;;;;;2262119;62;30791;-90
2022/03/18 21:32:55;;;;;;;3.20;1.80;;;17.40;70.10;;;;;;2275432;62;31005;-79
2022/03/18 21:35:21;;;;;;;3.70;1.80;;;17.40;70.00;;;;;;2268338;62;31768;-79
2022/03/18 21:37:48;;;;;;;3.13;1.85;;;17.40;69.90;;;;;;2266985;62;33766;-83
2022/03/18 21:40:14;;;;;;;3.97;2.13;;;17.40;69.80;;;;;;2274607;62;30317;-82
2022/03/18 21:42:48;;;;;;;3.15;1.73;;;17.40;69.70;;;;;;2268392;62;30197;-79
2022/03/18 21:45:17;;;;;;;4.85;2.10;;;17.40;69.50;;;;;;2275612;62;30283;-82
2022/03/18 21:47:44;;;;;;;3.67;1.90;;;17.40;69.80;;;;;;2275623;62;30243;-83
2022/03/18 21:50:13;;;;;;;3.58;1.83;;;17.40;70.00;;;;;;2261296;62;30223;-82
2022/03/18 21:52:40;;;;;;;7.38;2.10;;;17.40;69.90;;;;;;2275356;62;30907;-85
2022/03/18 21:55:06;;;;;;;3.72;1.58;;;17.50;69.70;;;;;;2275714;62;30634;-81
2022/03/18 21:57:32;;;;;;;3.60;1.95;;;17.50;69.50;;;;;;2264179;62;30197;-84
2022/03/18 21:59:58;;;;;;;2.65;1.75;;;17.40;69.50;;;;;;2269544;62;30276;-85
2022/03/18 22:02:25;;;;;;;2.60;1.88;;;17.40;69.40;;;;;;2275506;62;32120;-82
2022/03/18 22:04:51;;;;;;;3.10;1.80;;;17.40;69.40;;;;;;2275407;62;30763;-82
2022/03/18 22:07:17;;;;;;;5.47;2.00;;;17.40;69.40;;;;;;2267865;62;30135;-84
2022/03/18 22:09:43;;;;;;;3.50;1.73;;;17.40;69.80;;;;;;2275604;62;30207;-83
2022/03/18 22:12:11;;;;;;;2.97;1.88;;;17.40;69.80;;;;;;2268070;62;30394;-82
2022/03/18 22:14:38;;;;;;;4.68;2.17;;;17.40;69.80;;;;;;2275146;62;30175;-81
2022/03/18 22:17:05;;;;;;;3.45;1.85;;;17.40;69.60;;;;;;2275354;62;30299;-80
2022/03/18 22:19:31;;;;;;;3.55;1.85;;;17.40;69.50;;;;;;2267937;62;30113;-79
2022/03/18 22:21:59;;;;;;;3.85;1.95;;;17.40;69.40;;;;;;2274400;62;30146;-82
2022/03/18 22:24:27;;;;;;;3.65;1.88;;;17.40;69.50;;;;;;2274873;62;30439;-80
2022/03/18 22:26:54;;;;;;;3.20;1.50;;;17.30;69.50;;;;;;2272729;62;30159;-85
2022/03/18 22:29:21;;;;;;;2.92;1.48;;;17.30;69.50;;;;;;2283667;62;30157;-77
2022/03/18 22:31:47;;;;;;;2.45;1.52;;;17.40;69.70;;;;;;2275846;62;30153;-82
2022/03/18 22:34:13;;;;;;;3.35;1.70;;;17.40;69.70;;;;;;2278518;62;30248;-76
2022/03/18 22:36:39;;;;;;;3.45;1.95;;;17.40;69.70;;;;;;2268174;62;30276;-79
2022/03/18 22:39:05;;;;;;;2.03;1.40;;;17.40;69.50;;;;;;2273930;62;30407;-80
2022/03/18 22:41:30;;;;;;;5.97;2.00;;;17.40;69.40;;;;;;2275110;62;30970;-82
2022/03/18 22:43:58;;;;;;;5.20;1.90;;;17.30;69.30;;;;;;2274510;62;30229;-84
2022/03/18 22:46:24;;;;;;;2.92;1.60;;;17.30;69.40;;;;;;2267380;62;30304;-83
2022/03/18 22:48:50;;;;;;;10.27;1.90;;;17.30;69.50;;;;;;2274116;62;33574;-83
2022/03/18 22:51:16;;;;;;;4.68;1.90;;;17.30;69.70;;;;;;2274810;62;30303;-81
2022/03/18 22:53:42;;;;;;;2.25;1.92;;;17.40;69.80;;;;;;2275174;62;31118;-83
2022/03/18 22:56:11;;;;;;;2.50;1.65;;;17.40;69.40;;;;;;2274202;62;30071;-81
2022/03/18 22:58:41;;;;;;;2.65;1.83;;;17.30;69.40;;;;;;2275649;62;30405;-80
2022/03/18 23:01:07;;;;;;;3.55;1.50;;;17.30;69.30;;;;;;2275645;62;30218;-82
2022/03/18 23:03:34;;;;;;;1.85;1.55;;;17.30;69.30;;;;;;2282891;62;30628;-81
2022/03/18 23:06:00;;;;;;;5.63;1.80;;;17.30;69.40;;;;;;2282992;62;30687;-79
2022/03/18 23:08:26;;;;;;;3.70;1.75;;;17.30;69.40;;;;;;2275835;62;30158;-83
2022/03/18 23:13:38;;;;;;;5.57;1.48;;;17.20;69.40;;;;;;2283335;62;30391;-83
2022/03/18 23:16:06;;;;;;;2.63;1.50;;;17.20;69.60;;;;;;2275875;62;30191;-83
2022/03/18 23:18:37;;;;;;;1.40;1.30;;;17.30;69.70;;;;;;2274170;62;30514;-82
2022/03/18 23:21:05;;;;;;;2.72;1.40;;;17.30;69.70;;;;;;2267709;62;30947;-81
2022/03/18 23:23:31;;;;;;;4.07;1.63;;;17.30;69.60;;;;;;2267401;62;30583;-81
2022/03/18 23:25:59;;;;;;;3.03;1.60;;;17.30;69.40;;;;;;2274636;62;30402;-82
2022/03/18 23:28:25;;;;;;;3.53;1.80;;;17.30;69.30;;;;;;2274823;62;30115;-86
2022/03/18 23:30:51;;;;;;;6.60;1.80;;;17.30;69.20;;;;;;2273875;62;31240;-88
2022/03/18 23:33:19;;;;;;;2.28;1.80;;;17.20;69.30;;;;;;2274457;62;30636;-81
2022/03/18 23:35:44;;;;;;;20.98;7.95;;;17.20;69.50;;;;;;2270578;62;30328;-76
